sensor_id;sensor_type;location;lat;lon;timestamp;pressure;altitude;pressure_sealevel;temperature
69186;BMP280;56298;49.246;9.410;2023-06-14T00:01:31;99030.00;;;15.10
69186;BMP280;56298;49.246;9.410;2023-06-14T00:03:59;99025.69;;;14.98
69186;BMP280;56298;49.246;9.410;2023-06-14T00:06:25;99032.78;;;14.99
69186;BMP280;56298;49.246;9.410;2023-06-14T00:08:51;99035.94;;;14.94
69186;BMP280;56298;49.246;9.410;2023-06-14T00:11:16;99033.53;;;14.85
69186;BMP280;56298;49.246;9.410;2023-06-14T00:13:41;99030.03;;;14.85
69186;BMP280;56298;49.246;9.410;2023-06-14T00:16:08;99022.53;;;14.78
69186;BMP280;56298;49.246;9.410;2023-06-14T00:18:33;99023.69;;;14.77
69186;BMP280;56298;49.246;9.410;2023-06-14T00:20:58;99022.91;;;14.73
69186;BMP280;56298;49.246;9.410;2023-06-14T00:23:24;99026.44;;;14.80
69186;BMP280;56298;49.246;9.410;2023-06-14T00:25:49;99020.91;;;14.73
69186;BMP280;56298;49.246;9.410;2023-06-14T00:28:14;99019.34;;;14.72
69186;BMP280;56298;49.246;9.410;2023-06-14T00:30:40;99022.53;;;14.78
69186;BMP280;56298;49.246;9.410;2023-06-14T00:33:05;99024.47;;;14.77
69186;BMP280;56298;49.246;9.410;2023-06-14T00:35:31;99020.53;;;14.67
69186;BMP280;56298;49.246;9.410;2023-06-14T00:37:56;99015.00;;;14.71
69186;BMP280;56298;49.246;9.410;2023-06-14T00:40:22;99016.56;;;14.68
69186;BMP280;56298;49.246;9.410;2023-06-14T00:42:47;99017.38;;;14.80
69186;BMP280;56298;49.246;9.410;2023-06-14T00:45:13;99013.81;;;14.76
69186;BMP280;56298;49.246;9.410;2023-06-14T00:47:41;99013.81;;;14.76
69186;BMP280;56298;49.246;9.410;2023-06-14T00:50:07;99014.19;;;14.67
69186;BMP280;56298;49.246;9.410;2023-06-14T00:52:33;99015.00;;;14.60
69186;BMP280;56298;49.246;9.410;2023-06-14T00:54:59;99016.16;;;14.56
69186;BMP280;56298;49.246;9.410;2023-06-14T00:57:26;99018.94;;;14.56
69186;BMP280;56298;49.246;9.410;2023-06-14T00:59:52;99019.34;;;14.54
69186;BMP280;56298;49.246;9.410;2023-06-14T01:02:17;99020.88;;;14.44
69186;BMP280;56298;49.246;9.410;2023-06-14T01:04:47;99024.06;;;14.53
69186;BMP280;56298;49.246;9.410;2023-06-14T01:10:26;99020.81;;;14.26
69186;BMP280;56298;49.246;9.410;2023-06-14T01:13:05;99018.84;;;14.27
69186;BMP280;56298;49.246;9.410;2023-06-14T01:15:32;99017.63;;;14.24
69186;BMP280;56298;49.246;9.410;2023-06-14T01:17:58;99014.13;;;14.31
69186;BMP280;56298;49.246;9.410;2023-06-14T01:20:30;99013.72;;;14.25
69186;BMP280;56298;49.246;9.410;2023-06-14T01:22:56;99022.03;;;14.29
69186;BMP280;56298;49.246;9.410;2023-06-14T01:25:22;99022.78;;;14.22
69186;BMP280;56298;49.246;9.410;2023-06-14T01:27:53;99025.53;;;14.18
69186;BMP280;56298;49.246;9.410;2023-06-14T01:30:21;99021.59;;;14.16
69186;BMP280;56298;49.246;9.410;2023-06-14T01:32:48;99020.38;;;14.13
69186;BMP280;56298;49.246;9.410;2023-06-14T01:35:15;99021.94;;;14.03
69186;BMP280;56298;49.246;9.410;2023-06-14T01:37:42;99026.25;;;13.97
69186;BMP280;56298;49.246;9.410;2023-06-14T01:40:08;99031.31;;;13.99
69186;BMP280;56298;49.246;9.410;2023-06-14T01:42:36;99036.03;;;13.91
69186;BMP280;56298;49.246;9.410;2023-06-14T01:45:04;99032.50;;;13.98
69186;BMP280;56298;49.246;9.410;2023-06-14T01:47:31;99025.81;;;13.99
69186;BMP280;56298;49.246;9.410;2023-06-14T01:49:57;99029.41;;;14.03
69186;BMP280;56298;49.246;9.410;2023-06-14T01:52:23;99028.19;;;14.00
69186;BMP280;56298;49.246;9.410;2023-06-14T01:54:49;99023.47;;;14.04
69186;BMP280;56298;49.246;9.410;2023-06-14T01:57:15;99026.31;;;14.15
69186;BMP280;56298;49.246;9.410;2023-06-14T01:59:40;99026.69;;;14.14
69186;BMP280;56298;49.246;9.410;2023-06-14T02:02:05;99029.00;;;14.01
69186;BMP280;56298;49.246;9.410;2023-06-14T02:04:30;99030.94;;;14.00
69186;BMP280;56298;49.246;9.410;2023-06-14T02:06:56;99029.00;;;14.04
69186;BMP280;56298;49.246;9.410;2023-06-14T02:09:21;99027.06;;;14.08
69186;BMP280;56298;49.246;9.410;2023-06-14T02:11:46;99038.06;;;14.05
69186;BMP280;56298;49.246;9.410;2023-06-14T02:14:12;99036.44;;;13.93
69186;BMP280;56298;49.246;9.410;2023-06-14T02:16:37;99035.69;;;14.00
69186;BMP280;56298;49.246;9.410;2023-06-14T02:19:04;99040.34;;;13.92
69186;BMP280;56298;49.246;9.410;2023-06-14T02:21:29;99042.31;;;13.91
69186;BMP280;56298;49.246;9.410;2023-06-14T02:23:55;99039.16;;;13.89
69186;BMP280;56298;49.246;9.410;2023-06-14T02:26:20;99042.78;;;13.97
69186;BMP280;56298;49.246;9.410;2023-06-14T02:28:47;99042.78;;;13.97
69186;BMP280;56298;49.246;9.410;2023-06-14T02:31:12;99049.03;;;13.90
69186;BMP280;56298;49.246;9.410;2023-06-14T02:33:38;99045.47;;;13.93
69186;BMP280;56298;49.246;9.410;2023-06-14T02:36:03;99047.38;;;13.78
69186;BMP280;56298;49.246;9.410;2023-06-14T02:38:28;99052.13;;;13.78
69186;BMP280;56298;49.246;9.410;2023-06-14T02:40:54;99050.16;;;13.82
69186;BMP280;56298;49.246;9.410;2023-06-14T02:43:19;99040.59;;;13.65
69186;BMP280;56298;49.246;9.410;2023-06-14T02:45:45;99037.81;;;13.61
69186;BMP280;56298;49.246;9.410;2023-06-14T02:48:10;99046.88;;;13.65
69186;BMP280;56298;49.246;9.410;2023-06-14T02:50:36;99039.44;;;13.66
69186;BMP280;56298;49.246;9.410;2023-06-14T02:53:01;99047.31;;;13.71
69186;BMP280;56298;49.246;9.410;2023-06-14T02:55:27;99043.00;;;13.66
69186;BMP280;56298;49.246;9.410;2023-06-14T02:57:53;99044.63;;;13.78
69186;BMP280;56298;49.246;9.410;2023-06-14T03:00:18;99044.88;;;13.59
69186;BMP280;56298;49.246;9.410;2023-06-14T03:02:44;99043.22;;;13.43
69186;BMP280;56298;49.246;9.410;2023-06-14T03:05:10;99035.38;;;13.45
69186;BMP280;56298;49.246;9.410;2023-06-14T03:07:36;99042.09;;;13.51
69186;BMP280;56298;49.246;9.410;2023-06-14T03:10:09;99047.63;;;13.55
69186;BMP280;56298;49.246;9.410;2023-06-14T03:12:35;99046.41;;;13.52
69186;BMP280;56298;49.246;9.410;2023-06-14T03:15:01;99043.97;;;13.36
69186;BMP280;56298;49.246;9.410;2023-06-14T03:17:26;99052.59;;;13.35
69186;BMP280;56298;49.246;9.410;2023-06-14T03:19:55;99053.03;;;13.37
69186;BMP280;56298;49.246;9.410;2023-06-14T03:22:20;99055.81;;;13.44
69186;BMP280;56298;49.246;9.410;2023-06-14T03:24:47;99068.47;;;13.49
69186;BMP280;56298;49.246;9.410;2023-06-14T03:27:12;99061.78;;;13.53
69186;BMP280;56298;49.246;9.410;2023-06-14T03:29:37;99066.88;;;13.51
69186;BMP280;56298;49.246;9.410;2023-06-14T03:32:03;99064.16;;;13.55
69186;BMP280;56298;49.246;9.410;2023-06-14T03:34:28;99064.22;;;13.62
69186;BMP280;56298;49.246;9.410;2023-06-14T03:36:54;99069.75;;;13.66
69186;BMP280;56298;49.246;9.410;2023-06-14T03:39:20;99070.16;;;13.72
69186;BMP280;56298;49.246;9.410;2023-06-14T03:41:46;99067.38;;;13.68
69186;BMP280;56298;49.246;9.410;2023-06-14T03:44:11;99072.94;;;13.72
69186;BMP280;56298;49.246;9.410;2023-06-14T03:46:36;99076.13;;;13.77
69186;BMP280;56298;49.246;9.410;2023-06-14T03:49:01;99073.69;;;13.72
69186;BMP280;56298;49.246;9.410;2023-06-14T03:51:28;99079.28;;;13.76
69186;BMP280;56298;49.246;9.410;2023-06-14T03:53:53;99086.38;;;13.80
69186;BMP280;56298;49.246;9.410;2023-06-14T03:56:19;99080.13;;;13.87
69186;BMP280;56298;49.246;9.410;2023-06-14T03:58:44;99087.94;;;13.81
69186;BMP280;56298;49.246;9.410;2023-06-14T04:01:09;99092.34;;;13.90
69186;BMP280;56298;49.246;9.410;2023-06-14T04:03:37;99090.75;;;13.89
69186;BMP280;56298;49.246;9.410;2023-06-14T04:06:03;99091.56;;;13.93
69186;BMP280;56298;49.246;9.410;2023-06-14T04:08:29;99094.31;;;13.93
69186;BMP280;56298;49.246;9.410;2023-06-14T04:10:55;99095.16;;;14.04
69186;BMP280;56298;49.246;9.410;2023-06-14T04:13:20;99102.31;;;14.09
69186;BMP280;56298;49.246;9.410;2023-06-14T04:15:45;99099.94;;;14.07
69186;BMP280;56298;49.246;9.410;2023-06-14T04:18:11;99113.34;;;14.13
69186;BMP280;56298;49.246;9.410;2023-06-14T04:20:36;99114.16;;;14.24
69186;BMP280;56298;49.246;9.410;2023-06-14T04:23:15;99123.69;;;14.37
69186;BMP280;56298;49.246;9.410;2023-06-14T04:25:43;99116.28;;;14.52
69186;BMP280;56298;49.246;9.410;2023-06-14T04:28:13;99126.53;;;14.56
69186;BMP280;56298;49.246;9.410;2023-06-14T04:30:41;99121.47;;;14.65
69186;BMP280;56298;49.246;9.410;2023-06-14T04:33:06;99126.97;;;14.76
69186;BMP280;56298;49.246;9.410;2023-06-14T04:35:32;99128.19;;;14.82
69186;BMP280;56298;49.246;9.410;2023-06-14T04:37:58;99126.25;;;14.86
69186;BMP280;56298;49.246;9.410;2023-06-14T04:40:23;99137.31;;;14.90
69186;BMP280;56298;49.246;9.410;2023-06-14T04:42:48;99133.75;;;15.04
69186;BMP280;56298;49.246;9.410;2023-06-14T04:45:15;99133.78;;;15.15
69186;BMP280;56298;49.246;9.410;2023-06-14T04:47:41;99138.91;;;15.13
69186;BMP280;56298;49.246;9.410;2023-06-14T04:50:07;99134.19;;;15.17
69186;BMP280;56298;49.246;9.410;2023-06-14T04:52:32;99134.19;;;15.24
69186;BMP280;56298;49.246;9.410;2023-06-14T04:54:58;99134.19;;;15.20
69186;BMP280;56298;49.246;9.410;2023-06-14T04:57:24;99138.13;;;15.30
69186;BMP280;56298;49.246;9.410;2023-06-14T04:59:50;99140.13;;;15.44
69186;BMP280;56298;49.246;9.410;2023-06-14T05:02:20;99142.84;;;15.62
69186;BMP280;56298;49.246;9.410;2023-06-14T05:04:45;99143.63;;;15.74
69186;BMP280;56298;49.246;9.410;2023-06-14T05:07:12;99139.69;;;15.86
69186;BMP280;56298;49.246;9.410;2023-06-14T05:09:39;99146.38;;;15.99
69186;BMP280;56298;49.246;9.410;2023-06-14T05:12:05;99145.53;;;16.17
69186;BMP280;56298;49.246;9.410;2023-06-14T05:14:33;99142.25;;;16.44
69186;BMP280;56298;49.246;9.410;2023-06-14T05:16:58;99133.47;;;17.23
69186;BMP280;56298;49.246;9.410;2023-06-14T05:19:24;99133.50;;;18.00
69186;BMP280;56298;49.246;9.410;2023-06-14T05:21:50;99139.38;;;18.71
69186;BMP280;56298;49.246;9.410;2023-06-14T05:24:15;99126.50;;;19.32
69186;BMP280;56298;49.246;9.410;2023-06-14T05:26:42;99131.06;;;19.43
69186;BMP280;56298;49.246;9.410;2023-06-14T05:29:08;99136.59;;;20.07
69186;BMP280;56298;49.246;9.410;2023-06-14T05:31:33;99152.84;;;20.65
69186;BMP280;56298;49.246;9.410;2023-06-14T05:33:58;99149.03;;;21.09
69186;BMP280;56298;49.246;9.410;2023-06-14T05:36:24;99144.81;;;21.63
69186;BMP280;56298;49.246;9.410;2023-06-14T05:38:51;99149.91;;;22.37
69186;BMP280;56298;49.246;9.410;2023-06-14T05:41:22;99157.94;;;22.35
69186;BMP280;56298;49.246;9.410;2023-06-14T05:43:47;99159.38;;;22.91
69186;BMP280;56298;49.246;9.410;2023-06-14T05:46:13;99160.41;;;23.19
69186;BMP280;56298;49.246;9.410;2023-06-14T05:48:38;99158.72;;;23.22
69186;BMP280;56298;49.246;9.410;2023-06-14T05:51:03;99162.97;;;23.93
69186;BMP280;56298;49.246;9.410;2023-06-14T05:53:28;99158.72;;;24.52
69186;BMP280;56298;49.246;9.410;2023-06-14T05:55:54;99152.59;;;24.94
69186;BMP280;56298;49.246;9.410;2023-06-14T05:58:20;99156.75;;;25.73
69186;BMP280;56298;49.246;9.410;2023-06-14T06:00:45;99157.66;;;25.79
69186;BMP280;56298;49.246;9.410;2023-06-14T06:03:13;99150.06;;;26.47
69186;BMP280;56298;49.246;9.410;2023-06-14T06:05:38;99148.34;;;26.98
69186;BMP280;56298;49.246;9.410;2023-06-14T06:08:03;99151.94;;;27.14
69186;BMP280;56298;49.246;9.410;2023-06-14T06:10:29;99151.50;;;27.60
69186;BMP280;56298;49.246;9.410;2023-06-14T06:12:54;99156.72;;;27.83
69186;BMP280;56298;49.246;9.410;2023-06-14T06:15:20;99151.78;;;28.13
69186;BMP280;56298;49.246;9.410;2023-06-14T06:17:46;99156.00;;;28.59
69186;BMP280;56298;49.246;9.410;2023-06-14T06:20:11;99154.75;;;28.81
69186;BMP280;56298;49.246;9.410;2023-06-14T06:22:37;99154.69;;;29.22
69186;BMP280;56298;49.246;9.410;2023-06-14T06:25:03;99162.03;;;29.40
69186;BMP280;56298;49.246;9.410;2023-06-14T06:27:28;99167.38;;;29.96
69186;BMP280;56298;49.246;9.410;2023-06-14T06:29:53;99167.81;;;29.57
69186;BMP280;56298;49.246;9.410;2023-06-14T06:32:18;99173.94;;;29.82
69186;BMP280;56298;49.246;9.410;2023-06-14T06:34:44;99174.69;;;29.50
69186;BMP280;56298;49.246;9.410;2023-06-14T06:37:10;99171.94;;;29.30
69186;BMP280;56298;49.246;9.410;2023-06-14T06:39:35;99173.09;;;29.44
69186;BMP280;56298;49.246;9.410;2023-06-14T06:42:00;99168.56;;;29.26
69186;BMP280;56298;49.246;9.410;2023-06-14T06:44:26;99179.28;;;28.33
69186;BMP280;56298;49.246;9.410;2023-06-14T06:46:51;99181.28;;;28.12
69186;BMP280;56298;49.246;9.410;2023-06-14T06:49:16;99178.19;;;29.13
69186;BMP280;56298;49.246;9.410;2023-06-14T06:51:42;99182.66;;;28.58
69186;BMP280;56298;49.246;9.410;2023-06-14T06:54:10;99184.78;;;28.07
69186;BMP280;56298;49.246;9.410;2023-06-14T06:56:36;99182.91;;;28.04
69186;BMP280;56298;49.246;9.410;2023-06-14T06:59:03;99193.50;;;28.24
69186;BMP280;56298;49.246;9.410;2023-06-14T07:01:29;99189.13;;;28.23
69186;BMP280;56298;49.246;9.410;2023-06-14T07:03:54;99195.34;;;28.63
69186;BMP280;56298;49.246;9.410;2023-06-14T07:06:20;99191.56;;;28.92
69186;BMP280;56298;49.246;9.410;2023-06-14T07:08:45;99191.84;;;29.73
69186;BMP280;56298;49.246;9.410;2023-06-14T07:11:14;99193.69;;;29.76
69186;BMP280;56298;49.246;9.410;2023-06-14T07:13:40;99195.63;;;29.96
69186;BMP280;56298;49.246;9.410;2023-06-14T07:16:05;99198.66;;;30.25
69186;BMP280;56298;49.246;9.410;2023-06-14T07:18:31;99198.31;;;30.66
69186;BMP280;56298;49.246;9.410;2023-06-14T07:20:56;99192.81;;;29.96
69186;BMP280;56298;49.246;9.410;2023-06-14T07:23:22;99199.25;;;30.40
69186;BMP280;56298;49.246;9.410;2023-06-14T07:25:47;99195.69;;;30.08
69186;BMP280;56298;49.246;9.410;2023-06-14T07:28:13;99194.38;;;29.97
69186;BMP280;56298;49.246;9.410;2023-06-14T07:30:38;99201.94;;;30.67
69186;BMP280;56298;49.246;9.410;2023-06-14T07:33:03;99207.81;;;30.57
69186;BMP280;56298;49.246;9.410;2023-06-14T07:35:28;99208.47;;;30.29
69186;BMP280;56298;49.246;9.410;2023-06-14T07:37:54;99210.91;;;30.54
69186;BMP280;56298;49.246;9.410;2023-06-14T07:40:20;99212.03;;;30.85
69186;BMP280;56298;49.246;9.410;2023-06-14T07:42:45;99215.47;;;31.12
69186;BMP280;56298;49.246;9.410;2023-06-14T07:45:13;99223.19;;;31.11
69186;BMP280;56298;49.246;9.410;2023-06-14T07:47:38;99216.28;;;31.35
69186;BMP280;56298;49.246;9.410;2023-06-14T07:50:04;99221.13;;;30.94
69186;BMP280;56298;49.246;9.410;2023-06-14T07:52:29;99218.91;;;31.50
69186;BMP280;56298;49.246;9.410;2023-06-14T07:54:55;99217.59;;;31.39
69186;BMP280;56298;49.246;9.410;2023-06-14T07:57:21;99230.75;;;31.60
69186;BMP280;56298;49.246;9.410;2023-06-14T07:59:47;99225.50;;;31.01
69186;BMP280;56298;49.246;9.410;2023-06-14T08:02:12;99221.69;;;31.33
69186;BMP280;56298;49.246;9.410;2023-06-14T08:04:38;99217.84;;;31.64
69186;BMP280;56298;49.246;9.410;2023-06-14T08:07:04;99219.63;;;31.39
69186;BMP280;56298;49.246;9.410;2023-06-14T08:09:29;99210.84;;;32.05
69186;BMP280;56298;49.246;9.410;2023-06-14T08:11:55;99214.25;;;31.98
69186;BMP280;56298;49.246;9.410;2023-06-14T08:14:20;99225.84;;;31.54
69186;BMP280;56298;49.246;9.410;2023-06-14T08:16:46;99216.31;;;31.46
69186;BMP280;56298;49.246;9.410;2023-06-14T08:19:11;99217.00;;;31.01
69186;BMP280;56298;49.246;9.410;2023-06-14T08:21:36;99223.78;;;31.61
69186;BMP280;56298;49.246;9.410;2023-06-14T08:24:02;99225.09;;;31.60
69186;BMP280;56298;49.246;9.410;2023-06-14T08:26:27;99225.34;;;31.73
69186;BMP280;56298;49.246;9.410;2023-06-14T08:28:54;99216.47;;;32.39
69186;BMP280;56298;49.246;9.410;2023-06-14T08:31:20;99221.16;;;32.02
69186;BMP280;56298;49.246;9.410;2023-06-14T08:33:45;99220.66;;;32.04
69186;BMP280;56298;49.246;9.410;2023-06-14T08:36:11;99232.53;;;31.40
69186;BMP280;56298;49.246;9.410;2023-06-14T08:38:37;99228.66;;;31.15
69186;BMP280;56298;49.246;9.410;2023-06-14T08:41:04;99232.34;;;30.72
69186;BMP280;56298;49.246;9.410;2023-06-14T08:43:30;99228.28;;;30.90
69186;BMP280;56298;49.246;9.410;2023-06-14T08:46:01;99228.16;;;30.56
69186;BMP280;56298;49.246;9.410;2023-06-14T08:48:27;99226.09;;;30.62
69186;BMP280;56298;49.246;9.410;2023-06-14T08:50:55;99227.47;;;30.23
69186;BMP280;56298;49.246;9.410;2023-06-14T08:53:27;99227.19;;;30.70
69186;BMP280;56298;49.246;9.410;2023-06-14T08:55:54;99219.78;;;30.84
69186;BMP280;56298;49.246;9.410;2023-06-14T08:58:20;99226.19;;;30.73
69186;BMP280;56298;49.246;9.410;2023-06-14T09:00:49;99232.72;;;31.02
69186;BMP280;56298;49.246;9.410;2023-06-14T09:03:15;99241.06;;;31.74
69186;BMP280;56298;49.246;9.410;2023-06-14T09:05:40;99237.19;;;31.94
69186;BMP280;56298;49.246;9.410;2023-06-14T09:08:05;99232.53;;;31.34
69186;BMP280;56298;49.246;9.410;2023-06-14T09:10:32;99238.19;;;31.29
69186;BMP280;56298;49.246;9.410;2023-06-14T09:13:02;99236.66;;;31.56
69186;BMP280;56298;49.246;9.410;2023-06-14T09:15:28;99243.13;;;31.79
69186;BMP280;56298;49.246;9.410;2023-06-14T09:17:53;99247.94;;;31.22
69186;BMP280;56298;49.246;9.410;2023-06-14T09:20:19;99243.72;;;30.02
69186;BMP280;56298;49.246;9.410;2023-06-14T09:22:44;99246.84;;;30.42
69186;BMP280;56298;49.246;9.410;2023-06-14T09:25:10;99247.63;;;30.42
69186;BMP280;56298;49.246;9.410;2023-06-14T09:27:37;99246.19;;;30.64
69186;BMP280;56298;49.246;9.410;2023-06-14T09:30:05;99245.13;;;30.56
69186;BMP280;56298;49.246;9.410;2023-06-14T09:32:36;99246.00;;;30.24
69186;BMP280;56298;49.246;9.410;2023-06-14T09:35:02;99244.63;;;30.14
69186;BMP280;56298;49.246;9.410;2023-06-14T09:37:31;99243.31;;;30.09
69186;BMP280;56298;49.246;9.410;2023-06-14T09:39:57;99239.25;;;29.58
69186;BMP280;56298;49.246;9.410;2023-06-14T09:42:23;99245.09;;;29.48
69186;BMP280;56298;49.246;9.410;2023-06-14T09:44:51;99246.41;;;29.06
69186;BMP280;56298;49.246;9.410;2023-06-14T09:47:17;99235.25;;;28.76
69186;BMP280;56298;49.246;9.410;2023-06-14T09:49:43;99226.28;;;29.19
69186;BMP280;56298;49.246;9.410;2023-06-14T09:52:15;99227.22;;;28.54
69186;BMP280;56298;49.246;9.410;2023-06-14T09:54:43;99237.56;;;28.21
69186;BMP280;56298;49.246;9.410;2023-06-14T09:57:10;99239.59;;;28.21
69186;BMP280;56298;49.246;9.410;2023-06-14T09:59:40;99222.47;;;28.60
69186;BMP280;56298;49.246;9.410;2023-06-14T10:02:24;99232.94;;;28.39
69186;BMP280;56298;49.246;9.410;2023-06-14T10:04:55;99247.34;;;28.26
69186;BMP280;56298;49.246;9.410;2023-06-14T10:07:24;99236.38;;;28.84
69186;BMP280;56298;49.246;9.410;2023-06-14T10:09:52;99242.91;;;29.64
69186;BMP280;56298;49.246;9.410;2023-06-14T10:12:18;99237.25;;;30.28
69186;BMP280;56298;49.246;9.410;2023-06-14T10:14:50;99237.94;;;30.17
69186;BMP280;56298;49.246;9.410;2023-06-14T10:20:45;99234.16;;;30.26
69186;BMP280;56298;49.246;9.410;2023-06-14T10:23:21;99226.63;;;29.53
69186;BMP280;56298;49.246;9.410;2023-06-14T10:25:54;99227.63;;;28.82
69186;BMP280;56298;49.246;9.410;2023-06-14T10:28:21;99239.34;;;28.39
69186;BMP280;56298;49.246;9.410;2023-06-14T10:33:31;99233.25;;;28.41
69186;BMP280;56298;49.246;9.410;2023-06-14T10:38:57;99228.13;;;27.94
69186;BMP280;56298;49.246;9.410;2023-06-14T10:41:22;99230.75;;;27.68
69186;BMP280;56298;49.246;9.410;2023-06-14T10:43:47;99249.03;;;27.88
69186;BMP280;56298;49.246;9.410;2023-06-14T10:48:43;99235.88;;;29.27
69186;BMP280;56298;49.246;9.410;2023-06-14T10:51:19;99238.00;;;29.91
69186;BMP280;56298;49.246;9.410;2023-06-14T10:53:48;99233.13;;;30.23
69186;BMP280;56298;49.246;9.410;2023-06-14T10:56:30;99238.16;;;30.13
69186;BMP280;56298;49.246;9.410;2023-06-14T10:58:59;99223.34;;;30.73
69186;BMP280;56298;49.246;9.410;2023-06-14T11:04:20;99223.66;;;30.87
69186;BMP280;56298;49.246;9.410;2023-06-14T11:06:50;99219.03;;;30.95
69186;BMP280;56298;49.246;9.410;2023-06-14T11:09:36;99205.38;;;30.33
69186;BMP280;56298;49.246;9.410;2023-06-14T11:12:09;99206.91;;;29.59
69186;BMP280;56298;49.246;9.410;2023-06-14T11:14:35;99219.56;;;29.16
69186;BMP280;56298;49.246;9.410;2023-06-14T11:17:01;99215.75;;;28.99
69186;BMP280;56298;49.246;9.410;2023-06-14T11:19:26;99219.72;;;28.66
69186;BMP280;56298;49.246;9.410;2023-06-14T11:21:53;99215.69;;;28.52
69186;BMP280;56298;49.246;9.410;2023-06-14T11:24:19;99224.53;;;28.45
69186;BMP280;56298;49.246;9.410;2023-06-14T11:26:47;99218.75;;;28.33
69186;BMP280;56298;49.246;9.410;2023-06-14T11:29:14;99222.50;;;28.45
69186;BMP280;56298;49.246;9.410;2023-06-14T11:31:43;99219.94;;;28.62
69186;BMP280;56298;49.246;9.410;2023-06-14T11:34:09;99218.03;;;29.42
69186;BMP280;56298;49.246;9.410;2023-06-14T11:36:35;99217.75;;;29.66
69186;BMP280;56298;49.246;9.410;2023-06-14T11:39:01;99216.66;;;29.90
69186;BMP280;56298;49.246;9.410;2023-06-14T11:41:44;99222.94;;;29.47
69186;BMP280;56298;49.246;9.410;2023-06-14T11:44:10;99222.19;;;30.05
69186;BMP280;56298;49.246;9.410;2023-06-14T11:46:36;99208.91;;;29.85
69186;BMP280;56298;49.246;9.410;2023-06-14T11:49:02;99205.59;;;30.24
69186;BMP280;56298;49.246;9.410;2023-06-14T11:51:31;99202.41;;;30.10
69186;BMP280;56298;49.246;9.410;2023-06-14T11:53:57;99200.28;;;29.99
69186;BMP280;56298;49.246;9.410;2023-06-14T11:56:23;99206.63;;;30.26
69186;BMP280;56298;49.246;9.410;2023-06-14T11:58:48;99207.84;;;30.14
69186;BMP280;56298;49.246;9.410;2023-06-14T12:01:17;99209.81;;;29.17
69186;BMP280;56298;49.246;9.410;2023-06-14T12:03:50;99212.47;;;28.80
69186;BMP280;56298;49.246;9.410;2023-06-14T12:06:16;99211.16;;;28.39
69186;BMP280;56298;49.246;9.410;2023-06-14T12:08:43;99222.78;;;29.03
69186;BMP280;56298;49.246;9.410;2023-06-14T12:11:11;99210.72;;;29.88
69186;BMP280;56298;49.246;9.410;2023-06-14T12:13:40;99217.28;;;30.43
69186;BMP280;56298;49.246;9.410;2023-06-14T12:16:10;99211.81;;;30.88
69186;BMP280;56298;49.246;9.410;2023-06-14T12:18:37;99214.16;;;31.01
69186;BMP280;56298;49.246;9.410;2023-06-14T12:21:06;99215.00;;;31.47
69186;BMP280;56298;49.246;9.410;2023-06-14T12:23:42;99201.59;;;31.82
69186;BMP280;56298;49.246;9.410;2023-06-14T12:26:07;99197.16;;;32.20
69186;BMP280;56298;49.246;9.410;2023-06-14T12:28:32;99196.94;;;31.79
69186;BMP280;56298;49.246;9.410;2023-06-14T12:30:58;99202.91;;;31.47
69186;BMP280;56298;49.246;9.410;2023-06-14T12:33:24;99207.50;;;31.27
69186;BMP280;56298;49.246;9.410;2023-06-14T12:35:50;99203.38;;;31.11
69186;BMP280;56298;49.246;9.410;2023-06-14T12:38:15;99201.66;;;30.65
69186;BMP280;56298;49.246;9.410;2023-06-14T12:40:41;99199.72;;;30.88
69186;BMP280;56298;49.246;9.410;2023-06-14T12:43:07;99198.41;;;30.83
69186;BMP280;56298;49.246;9.410;2023-06-14T12:45:32;99200.75;;;30.96
69186;BMP280;56298;49.246;9.410;2023-06-14T12:47:58;99200.34;;;31.32
69186;BMP280;56298;49.246;9.410;2023-06-14T12:50:23;99204.34;;;30.85
69186;BMP280;56298;49.246;9.410;2023-06-14T12:52:48;99203.91;;;31.21
69186;BMP280;56298;49.246;9.410;2023-06-14T12:55:13;99197.84;;;30.68
69186;BMP280;56298;49.246;9.410;2023-06-14T12:57:39;99192.75;;;30.83
69186;BMP280;56298;49.246;9.410;2023-06-14T13:00:05;99200.72;;;30.85
69186;BMP280;56298;49.246;9.410;2023-06-14T13:02:32;99204.28;;;30.68
69186;BMP280;56298;49.246;9.410;2023-06-14T13:04:57;99197.94;;;31.02
69186;BMP280;56298;49.246;9.410;2023-06-14T13:07:24;99198.91;;;30.76
69186;BMP280;56298;49.246;9.410;2023-06-14T13:09:49;99205.28;;;30.16
69186;BMP280;56298;49.246;9.410;2023-06-14T13:12:15;99211.38;;;30.46
69186;BMP280;56298;49.246;9.410;2023-06-14T13:14:40;99207.22;;;30.42
69186;BMP280;56298;49.246;9.410;2023-06-14T13:17:08;99205.13;;;30.37
69186;BMP280;56298;49.246;9.410;2023-06-14T13:19:33;99200.09;;;30.09
69186;BMP280;56298;49.246;9.410;2023-06-14T13:21:59;99201.13;;;30.11
69186;BMP280;56298;49.246;9.410;2023-06-14T13:24:24;99196.06;;;29.89
69186;BMP280;56298;49.246;9.410;2023-06-14T13:26:49;99202.28;;;29.56
69186;BMP280;56298;49.246;9.410;2023-06-14T13:29:14;99197.22;;;29.13
69186;BMP280;56298;49.246;9.410;2023-06-14T13:31:40;99200.19;;;29.03
69186;BMP280;56298;49.246;9.410;2023-06-14T13:34:05;99197.44;;;29.09
69186;BMP280;56298;49.246;9.410;2023-06-14T13:36:31;99195.59;;;28.85
69186;BMP280;56298;49.246;9.410;2023-06-14T13:38:56;99199.81;;;28.54
69186;BMP280;56298;49.246;9.410;2023-06-14T13:41:25;99197.78;;;28.55
69186;BMP280;56298;49.246;9.410;2023-06-14T13:43:56;99194.97;;;28.76
69186;BMP280;56298;49.246;9.410;2023-06-14T13:46:21;99189.44;;;29.08
69186;BMP280;56298;49.246;9.410;2023-06-14T13:48:46;99192.19;;;29.49
69186;BMP280;56298;49.246;9.410;2023-06-14T13:51:12;99193.94;;;29.78
69186;BMP280;56298;49.246;9.410;2023-06-14T13:53:38;99199.38;;;29.24
69186;BMP280;56298;49.246;9.410;2023-06-14T13:56:03;99198.94;;;29.31
69186;BMP280;56298;49.246;9.410;2023-06-14T13:58:28;99192.25;;;29.08
69186;BMP280;56298;49.246;9.410;2023-06-14T14:00:54;99185.75;;;29.01
69186;BMP280;56298;49.246;9.410;2023-06-14T14:03:19;99182.78;;;29.11
69186;BMP280;56298;49.246;9.410;2023-06-14T14:05:44;99186.91;;;29.10
69186;BMP280;56298;49.246;9.410;2023-06-14T14:08:10;99181.69;;;28.82
69186;BMP280;56298;49.246;9.410;2023-06-14T14:10:35;99186.00;;;28.77
69186;BMP280;56298;49.246;9.410;2023-06-14T14:13:01;99182.41;;;28.20
69186;BMP280;56298;49.246;9.410;2023-06-14T14:15:26;99184.94;;;28.18
69186;BMP280;56298;49.246;9.410;2023-06-14T14:17:52;99182.53;;;28.47
69186;BMP280;56298;49.246;9.410;2023-06-14T14:20:19;99182.16;;;28.39
69186;BMP280;56298;49.246;9.410;2023-06-14T14:22:44;99183.78;;;28.10